createdAt,value
2018-12-15T00:00:39.935Z,1.9
2018-12-15T00:01:30.174Z,1.9
2018-12-15T00:02:19.519Z,1.9
2018-12-15T00:03:09.848Z,1.9
2018-12-15T00:03:59.911Z,1.9
2018-12-15T00:04:49.691Z,2
2018-12-15T00:05:39.751Z,1.9
2018-12-15T00:06:30.078Z,2
2018-12-15T00:07:19.614Z,1.9
2018-12-15T00:08:09.365Z,1.9
2018-12-15T00:08:59.968Z,2
2018-12-15T00:09:50.033Z,2
2018-12-15T00:10:40.098Z,2
2018-12-15T00:11:30.141Z,2
2018-12-15T00:12:20.453Z,2
2018-12-15T00:13:10.532Z,1.9
2018-12-15T00:14:00.045Z,2
2018-12-15T00:14:50.385Z,2
2018-12-15T00:33:01.492Z,2
2018-12-15T00:33:51.307Z,2
2018-12-15T00:34:41.642Z,2
2018-12-15T00:35:31.417Z,2
2018-12-15T00:36:21.461Z,2
2018-12-15T00:37:11.496Z,2
2018-12-15T00:38:02.069Z,2
2018-12-15T00:38:51.913Z,2
2018-12-15T00:39:41.686Z,2
2018-12-15T00:40:32.026Z,2
2018-12-15T00:41:21.811Z,2
2018-12-15T00:42:11.581Z,2
2018-12-15T00:43:01.969Z,2
2018-12-15T00:43:52.496Z,2.1
2018-12-15T00:44:42.318Z,2.1
2018-12-15T00:45:31.808Z,2.1
2018-12-15T00:46:22.416Z,2.1
2018-12-15T00:47:16.811Z,2.1
2018-12-15T00:48:02.533Z,2.1
2018-12-15T00:48:52.349Z,2.1
2018-12-15T00:49:42.438Z,2.1
2018-12-15T00:50:32.423Z,2.1
2018-12-15T00:51:21.929Z,2.1
2018-12-15T00:52:12.829Z,2.1
2018-12-15T00:53:02.613Z,2.1
2018-12-15T00:53:52.393Z,2.1
2018-12-15T00:54:42.451Z,2
2018-12-15T00:55:32.508Z,2
2018-12-15T00:56:22.898Z,2
2018-12-15T00:57:12.633Z,2
2018-12-15T00:58:02.946Z,2.1
2018-12-15T00:58:53.058Z,2.1
2018-12-15T00:59:43.335Z,2.1
2018-12-15T01:00:32.845Z,2.1
2018-12-15T01:01:23.543Z,2.1
2018-12-15T01:02:13.238Z,2.1
2018-12-15T01:03:03.286Z,2.1
2018-12-15T01:03:53.638Z,2.1
2018-12-15T01:04:43.680Z,2.2
2018-12-15T01:05:33.477Z,2.1
2018-12-15T01:06:23.250Z,2.1
2018-12-15T01:07:13.613Z,2.1
2018-12-15T01:08:03.378Z,2.1
2018-12-15T01:08:54.220Z,2.1
2018-12-15T01:09:44.587Z,2.1
2018-12-15T01:10:34.652Z,2.1
2018-12-15T01:11:23.892Z,2.1
2018-12-15T01:12:13.382Z,2.2
2018-12-15T01:13:03.948Z,2.1
2018-12-15T01:13:53.780Z,2.1
2018-12-15T01:14:44.107Z,2.1
2018-12-15T01:15:34.980Z,2.1
2018-12-15T01:16:24.007Z,2.1
2018-12-15T01:17:21.180Z,2.1
2018-12-15T01:18:04.615Z,2.1
2018-12-15T01:18:54.107Z,2.1
2018-12-15T01:19:44.690Z,2.1
2018-12-15T01:20:34.502Z,2.1
2018-12-15T01:21:24.842Z,2.1
2018-12-15T01:22:14.895Z,2.1
2018-12-15T01:23:04.386Z,2.1
2018-12-15T01:23:54.727Z,2.1
2018-12-15T01:24:45.033Z,2.1
2018-12-15T01:25:34.862Z,2.1
2018-12-15T01:26:25.182Z,2.1
2018-12-15T01:27:14.684Z,2.1
2018-12-15T01:28:04.744Z,2.1
2018-12-15T01:28:55.069Z,2.1
2018-12-15T01:29:44.847Z,2.1
2018-12-15T01:30:35.465Z,2.1
2018-12-15T01:31:25.577Z,2.1
2018-12-15T01:32:15.572Z,2.1
2018-12-15T01:33:05.699Z,2.1
2018-12-15T01:33:55.691Z,2.1
2018-12-15T01:34:45.189Z,2.1
2018-12-15T01:35:35.824Z,2.2
2018-12-15T01:36:25.093Z,2.1
2018-12-15T01:37:15.914Z,2.1
2018-12-15T01:38:05.722Z,2.1
2018-12-15T01:38:55.496Z,2.1
2018-12-15T01:39:45.824Z,2.1
2018-12-15T01:40:35.869Z,2.2
2018-12-15T01:41:26.216Z,2.2
2018-12-15T01:42:15.989Z,2.2
2018-12-15T01:43:06.062Z,2.1
2018-12-15T01:43:56.386Z,2.1
2018-12-15T01:44:46.454Z,2.1
2018-12-15T01:45:36.226Z,2.1
2018-12-15T01:46:26.284Z,2.1
2018-12-15T01:47:16.341Z,2.1
2018-12-15T01:48:06.671Z,2.1
2018-12-15T01:48:56.412Z,2.1
2018-12-15T01:49:46.509Z,2
2018-12-15T01:50:36.818Z,2
2018-12-15T01:51:26.628Z,2
2018-12-15T01:52:16.946Z,2
2018-12-15T01:53:06.468Z,1.9
2018-12-15T01:53:56.523Z,1.9
2018-12-15T01:54:47.131Z,1.9
2018-12-15T01:55:37.226Z,1.9
2018-12-15T01:56:26.970Z,1.9
2018-12-15T01:57:17.018Z,1.9
2018-12-15T01:58:07.386Z,1.9
2018-12-15T01:58:57.153Z,1.8
2018-12-15T01:59:47.473Z,1.8
2018-12-15T02:00:37.261Z,1.8
2018-12-15T02:01:27.313Z,1.8
2018-12-15T02:02:17.385Z,1.8
2018-12-15T02:03:07.430Z,1.8
2018-12-15T02:03:57.495Z,1.8
2018-12-15T02:04:46.718Z,1.8
2018-12-15T02:05:37.882Z,1.9
2018-12-15T02:06:27.657Z,1.9
2018-12-15T02:07:18.008Z,1.9
2018-12-15T02:08:07.764Z,1.9
2018-12-15T02:08:57.832Z,1.8
2018-12-15T02:09:47.874Z,1.8
2018-12-15T02:10:37.667Z,1.9
2018-12-15T02:11:27.722Z,1.9
2018-12-15T02:12:18.053Z,1.9
2018-12-15T02:13:07.837Z,1.9
2018-12-15T02:13:58.465Z,1.9
2018-12-15T02:14:48.532Z,1.9
2018-12-15T02:15:38.014Z,1.9
2018-12-15T02:16:28.895Z,1.9
2018-12-15T02:17:18.400Z,1.9
2018-12-15T02:18:08.435Z,1.9
2018-12-15T02:18:58.802Z,1.9
2018-12-15T02:19:48.596Z,1.9
2018-12-15T02:20:38.361Z,2
2018-12-15T02:21:28.971Z,1.9
2018-12-15T02:22:18.542Z,1.9
2018-12-15T02:23:09.131Z,1.9
2018-12-15T02:23:58.858Z,1.9
2018-12-15T02:24:48.935Z,1.9
2018-12-15T02:25:39.244Z,1.9
2018-12-15T02:26:29.031Z,2
2018-12-15T02:27:19.086Z,1.9
2018-12-15T02:28:09.152Z,2
2018-12-15T02:28:59.198Z,2
2018-12-15T02:29:49.553Z,2
2018-12-15T02:30:39.636Z,2.1
2018-12-15T02:31:29.679Z,2
2018-12-15T02:32:19.735Z,1.9
2018-12-15T02:33:09.509Z,2
2018-12-15T02:33:59.565Z,2
2018-12-15T02:34:49.618Z,2
2018-12-15T02:35:39.411Z,2
2018-12-15T02:36:29.731Z,2
2018-12-15T02:37:20.321Z,1.9
2018-12-15T02:38:09.826Z,1.9
2018-12-15T02:38:59.904Z,1.9
2018-12-15T02:39:49.443Z,1.9
2018-12-15T02:40:40.047Z,1.9
2018-12-15T02:41:30.342Z,1.9
2018-12-15T02:42:19.843Z,2
2018-12-15T02:43:10.730Z,2
2018-12-15T02:44:00.250Z,1.9
2018-12-15T02:44:50.622Z,1.9
2018-12-15T02:45:40.643Z,2
2018-12-15T02:46:30.428Z,1.9
2018-12-15T02:47:20.750Z,1.9
2018-12-15T02:48:10.229Z,1.9
2018-12-15T02:49:00.830Z,1.9
2018-12-15T02:49:50.943Z,1.9
2018-12-15T02:50:40.986Z,1.9
2018-12-15T02:51:30.828Z,1.9
2018-12-15T02:52:20.542Z,1.9
2018-12-15T02:53:11.440Z,1.9
2018-12-15T02:54:01.209Z,1.9
2018-12-15T02:54:51.266Z,1.9
2018-12-15T02:55:41.060Z,1.9
2018-12-15T02:56:31.073Z,1.9
2018-12-15T02:57:21.170Z,1.9
2018-12-15T02:58:11.285Z,1.9
2018-12-15T02:59:01.005Z,1.8
2018-12-15T02:59:51.322Z,1.9
2018-12-15T03:00:41.117Z,1.8
2018-12-15T03:01:31.723Z,1.8
2018-12-15T03:02:21.512Z,1.9
2018-12-15T03:03:11.569Z,1.9
2018-12-15T03:04:01.892Z,1.9
2018-12-15T03:04:52.247Z,1.9
2018-12-15T03:05:41.744Z,1.9
2018-12-15T03:06:31.860Z,2
2018-12-15T03:07:21.856Z,2.1
2018-12-15T03:08:12.185Z,2.1
2018-12-15T03:09:01.702Z,2.1
2018-12-15T03:09:51.765Z,2
2018-12-15T03:10:42.602Z,2
2018-12-15T03:11:31.864Z,2
2018-12-15T03:12:22.186Z,2
2018-12-15T03:13:11.964Z,2.1
2018-12-15T03:14:02.386Z,2.1
2018-12-15T03:14:52.617Z,2.1
2018-12-15T03:15:42.711Z,2.1
2018-12-15T03:16:32.763Z,2.1
2018-12-15T03:17:22.599Z,2.1
2018-12-15T03:18:12.871Z,2.1
2018-12-15T03:19:02.403Z,2.1
2018-12-15T03:19:52.448Z,2.1
2018-12-15T03:20:42.491Z,2.2
2018-12-15T03:21:32.633Z,2.1
2018-12-15T03:22:23.173Z,2.1
2018-12-15T03:23:12.673Z,2.1
2018-12-15T03:24:02.993Z,2.1
2018-12-15T03:24:53.017Z,2.1
2018-12-15T03:25:43.380Z,2
2018-12-15T03:26:33.443Z,2
2018-12-15T03:27:23.645Z,2
2018-12-15T03:28:13.150Z,2
2018-12-15T03:29:03.618Z,2
2018-12-15T03:29:53.689Z,2
2018-12-15T03:30:43.801Z,2.1
2018-12-15T03:31:37.110Z,2
2018-12-15T03:32:23.990Z,2
2018-12-15T03:33:13.640Z,2.1
2018-12-15T03:34:03.975Z,2.1
2018-12-15T03:34:53.987Z,2.1
2018-12-15T03:35:43.792Z,2.1
2018-12-15T03:36:34.155Z,2.1
2018-12-15T03:37:23.936Z,2.2
2018-12-15T03:38:14.242Z,2.1
2018-12-15T03:39:04.368Z,2.1
2018-12-15T03:39:53.830Z,2.1
2018-12-15T03:40:44.440Z,2.1
2018-12-15T03:41:34.479Z,2.1
2018-12-15T03:42:24.831Z,2.2
2018-12-15T03:43:14.043Z,2.2
2018-12-15T03:44:04.109Z,2.1
2018-12-15T03:44:54.161Z,2.2
2018-12-15T03:45:44.215Z,2.2
2018-12-15T03:46:34.816Z,2.2
2018-12-15T03:47:24.333Z,2.2
2018-12-15T03:48:14.936Z,2.2
2018-12-15T03:49:05.011Z,2.2
2018-12-15T03:49:54.784Z,2.3
2018-12-15T03:50:45.104Z,2.3
2018-12-15T03:51:35.160Z,2.3
2018-12-15T03:52:25.268Z,2.3
2018-12-15T03:53:15.006Z,2.4
2018-12-15T03:54:05.350Z,2.4
2018-12-15T03:54:55.118Z,2.4
2018-12-15T03:55:45.470Z,2.4
2018-12-15T03:56:35.237Z,2.4
2018-12-15T03:57:25.378Z,2.3
2018-12-15T03:58:15.688Z,2.3
2018-12-15T03:59:05.423Z,2.4
2018-12-15T03:59:55.466Z,2.4
2018-12-15T04:00:45.535Z,2.3
2018-12-15T04:01:35.877Z,2.3
2018-12-15T04:02:25.998Z,2.4
2018-12-15T04:03:16.050Z,2.4
2018-12-15T04:04:06.284Z,2.4
2018-12-15T04:04:55.805Z,2.3
2018-12-15T04:05:45.868Z,2.3
2018-12-15T04:06:35.649Z,2.3
2018-12-15T04:07:26.564Z,2.3
2018-12-15T04:08:16.046Z,2.3
2018-12-15T04:09:06.108Z,2.3
2018-12-15T04:09:56.453Z,2.3
2018-12-15T04:10:45.697Z,2.4
2018-12-15T04:11:36.572Z,2.3
2018-12-15T04:12:26.070Z,2.3
2018-12-15T04:13:15.854Z,2.3
2018-12-15T04:14:06.451Z,2.3
2018-12-15T04:14:56.855Z,2.3
2018-12-15T04:15:46.566Z,2.3
2018-12-15T04:16:36.948Z,2.3
2018-12-15T04:17:26.961Z,2.3
2018-12-15T04:18:16.458Z,2.3
2018-12-15T04:19:07.090Z,2.3
2018-12-15T04:19:56.860Z,2.3
2018-12-15T04:20:46.930Z,2.3
2018-12-15T04:21:36.958Z,2.3
2018-12-15T04:22:27.290Z,2.3
2018-12-15T04:23:17.370Z,2.4
2018-12-15T04:24:07.407Z,2.4
2018-12-15T04:24:57.472Z,2.4
2018-12-15T04:25:47.842Z,2.4
2018-12-15T04:26:37.574Z,2.4
2018-12-15T04:27:27.109Z,2.4
2018-12-15T04:28:17.167Z,2.3
2018-12-15T04:29:07.759Z,2.3
2018-12-15T04:29:57.869Z,2.3
2018-12-15T04:30:48.145Z,2.3
2018-12-15T04:31:37.647Z,2.3
2018-12-15T04:32:27.985Z,2.3
2018-12-15T04:33:17.771Z,2.4
2018-12-15T04:34:08.120Z,2.4
2018-12-15T04:34:57.894Z,2.3
2018-12-15T04:35:48.232Z,2.3
2018-12-15T04:36:38.015Z,2.3
2018-12-15T04:37:28.316Z,2.3
2018-12-15T04:38:18.387Z,2.3
2018-12-15T04:39:08.193Z,2.3
2018-12-15T04:39:58.521Z,2.3
2018-12-15T04:40:48.576Z,2.4
2018-12-15T04:41:38.102Z,2.3
2018-12-15T04:42:28.389Z,2.3
2018-12-15T04:43:18.451Z,2.3
2018-12-15T04:44:08.506Z,2.3
2018-12-15T04:44:58.565Z,2.3
2018-12-15T05:02:15.877Z,2.3
2018-12-15T05:03:05.939Z,2.2
2018-12-15T05:03:55.732Z,2.3
2018-12-15T05:04:45.794Z,2.3
2018-12-15T05:05:35.861Z,2.3
2018-12-15T05:06:25.642Z,2.2
2018-12-15T05:07:15.959Z,2.2
2018-12-15T05:08:05.789Z,2.2
2018-12-15T05:08:56.049Z,2.2
2018-12-15T05:09:46.138Z,2.2
2018-12-15T05:10:36.164Z,2.2
2018-12-15T05:11:26.505Z,2.3
2018-12-15T05:12:16.551Z,2.2
2018-12-15T05:13:06.098Z,2.1
2018-12-15T05:13:56.407Z,2.1
2018-12-15T05:14:46.738Z,2.1
2018-12-15T05:15:36.801Z,2
2018-12-15T05:16:26.031Z,2
2018-12-15T05:17:17.217Z,2
2018-12-15T05:18:06.999Z,2
2018-12-15T05:18:56.766Z,2.1
2018-12-15T05:19:46.814Z,2.1
2018-12-15T05:20:36.580Z,2
2018-12-15T05:21:27.276Z,2.1
2018-12-15T05:22:16.707Z,2
2018-12-15T05:23:07.320Z,2
2018-12-15T05:23:56.823Z,2
2018-12-15T05:24:47.206Z,2
2018-12-15T05:25:37.468Z,2
2018-12-15T05:26:27.533Z,2.1
2018-12-15T05:27:17.321Z,2.1
2018-12-15T05:28:07.648Z,2.1
2018-12-15T05:28:57.523Z,2.1
2018-12-15T05:29:47.503Z,2.2
2018-12-15T05:30:38.073Z,2.2
2018-12-15T05:31:27.650Z,2.1
2018-12-15T05:32:17.461Z,2.1
2018-12-15T05:33:07.468Z,2.1
2018-12-15T05:33:57.526Z,2.1
2018-12-15T05:34:48.093Z,2.1
2018-12-15T05:35:38.198Z,2.1
2018-12-15T05:36:27.698Z,2.1
2018-12-15T05:37:18.286Z,2.1
2018-12-15T05:38:08.053Z,2.1
2018-12-15T05:38:58.118Z,2.1
2018-12-15T05:39:49.020Z,2.1
2018-12-15T05:40:38.232Z,2.1
2018-12-15T05:41:28.281Z,2.1
2018-12-15T05:42:17.565Z,2.1
2018-12-15T05:43:08.743Z,2
2018-12-15T05:43:58.462Z,2.1
2018-12-15T05:44:48.774Z,2.1
2018-12-15T05:45:38.847Z,2.1
2018-12-15T05:46:28.637Z,2.1
2018-12-15T05:47:18.975Z,2.1
2018-12-15T05:48:09.024Z,2.1
2018-12-15T05:48:59.087Z,2.1
2018-12-15T05:49:49.139Z,2.1
2018-12-15T05:50:38.927Z,2.1
2018-12-15T05:51:29.274Z,2.1
2018-12-15T05:52:18.762Z,2.1
2018-12-15T05:53:09.362Z,2.1
2018-12-15T05:53:59.429Z,2.1
2018-12-15T05:54:49.494Z,2.1
2018-12-15T05:55:39.272Z,2.1
2018-12-15T05:56:29.322Z,2.1
2018-12-15T05:57:19.657Z,2.1
2018-12-15T05:58:09.447Z,2.1
2018-12-15T05:58:59.782Z,2.1
2018-12-15T05:59:49.289Z,2.1
2018-12-15T06:00:39.594Z,2.1
2018-12-15T06:01:29.949Z,2.1
2018-12-15T06:02:19.739Z,2.1
2018-12-15T06:03:09.789Z,2.1
2018-12-15T06:04:00.112Z,2.1
2018-12-15T06:04:50.177Z,2.1
2018-12-15T06:05:39.946Z,2.1
2018-12-15T06:06:29.729Z,2.1
2018-12-15T06:07:20.334Z,2.2
2018-12-15T06:08:10.401Z,2.1
2018-12-15T06:09:00.462Z,2.2
2018-12-15T06:09:50.524Z,2.2
2018-12-15T06:10:40.294Z,2.2
2018-12-15T06:11:30.626Z,2.1
2018-12-15T06:12:21.009Z,2.2
2018-12-15T06:13:10.478Z,2.1
2018-12-15T06:14:00.791Z,2.2
2018-12-15T06:14:50.591Z,2.2
2018-12-15T06:15:40.906Z,2.3
2018-12-15T06:16:30.971Z,2.2
2018-12-15T06:17:21.273Z,2.2
2018-12-15T06:18:11.088Z,2.2
2018-12-15T06:19:00.308Z,2.2
2018-12-15T06:19:50.636Z,2.2
2018-12-15T06:20:40.703Z,2.1
2018-12-15T06:21:31.588Z,2.1
2018-12-15T06:22:21.376Z,2.2
2018-12-15T06:23:10.590Z,2.1
2018-12-15T06:24:00.969Z,2.1
2018-12-15T06:24:51.307Z,2.1
2018-12-15T06:25:41.053Z,2.1
2018-12-15T06:26:31.965Z,2.1
2018-12-15T06:27:21.174Z,2
2018-12-15T06:28:11.485Z,2
2018-12-15T06:29:01.842Z,2.1
2018-12-15T06:29:51.605Z,2
2018-12-15T06:30:41.945Z,2
2018-12-15T06:31:32.005Z,1.9
2018-12-15T06:32:21.782Z,1.9
2018-12-15T06:33:11.557Z,1.9
2018-12-15T06:34:01.892Z,1.9
2018-12-15T06:34:52.235Z,1.9
2018-12-15T06:35:41.737Z,1.9
2018-12-15T06:36:31.853Z,1.9
2018-12-15T06:37:22.129Z,1.9
2018-12-15T06:38:12.462Z,1.9
2018-12-15T06:39:02.232Z,1.9
2018-12-15T06:39:52.610Z,1.9
2018-12-15T06:40:42.352Z,1.9
2018-12-15T06:41:32.134Z,1.9
2018-12-15T06:42:22.763Z,1.9
2018-12-15T06:43:12.857Z,1.9
2018-12-15T06:44:02.859Z,1.9
2018-12-15T06:44:52.636Z,1.9
2018-12-15T06:45:42.690Z,1.9
2018-12-15T06:46:33.004Z,1.9
2018-12-15T06:47:22.819Z,1.9
2018-12-15T06:48:13.134Z,1.9
2018-12-15T06:49:03.204Z,1.9
2018-12-15T06:49:53.336Z,2
2018-12-15T06:50:43.323Z,1.9
2018-12-15T06:51:32.279Z,1.9
2018-12-15T06:52:23.426Z,2
2018-12-15T06:53:13.484Z,1.9
2018-12-15T06:54:03.548Z,2
2018-12-15T06:54:53.326Z,2
2018-12-15T06:55:42.821Z,2
2018-12-15T06:56:33.703Z,2
2018-12-15T06:57:23.486Z,2
2018-12-15T06:58:13.785Z,2.1
2018-12-15T06:59:03.598Z,2
2018-12-15T06:59:53.730Z,2.1
2018-12-15T07:00:43.715Z,2.1
2018-12-15T07:01:34.055Z,2.1
2018-12-15T07:02:23.840Z,2.1
2018-12-15T07:03:14.175Z,2.1
2018-12-15T07:04:03.955Z,2.1
2018-12-15T07:04:54.333Z,2.1
2018-12-15T07:05:44.341Z,2.1
2018-12-15T07:06:34.130Z,2.2
2018-12-15T07:07:24.162Z,2.2
2018-12-15T07:08:14.240Z,2.3
2018-12-15T07:09:04.645Z,2.3
2018-12-15T07:09:54.064Z,2.3
2018-12-15T07:10:44.679Z,2.3
2018-12-15T07:11:34.734Z,2.4
2018-12-15T07:12:24.757Z,2.4
2018-12-15T07:13:14.834Z,2.4
2018-12-15T07:14:04.909Z,2.4
2018-12-15T07:14:54.682Z,2.4
2018-12-15T07:15:45.024Z,2.4
2018-12-15T07:16:34.879Z,2.4
2018-12-15T07:17:25.157Z,2.4
2018-12-15T07:18:14.369Z,2.5
2018-12-15T07:19:04.977Z,2.5
2018-12-15T07:19:55.041Z,2.5
2018-12-15T07:20:45.083Z,2.6
2018-12-15T07:21:34.656Z,2.6
2018-12-15T07:22:25.213Z,2.6
2018-12-15T07:23:15.508Z,2.6
2018-12-15T07:24:05.666Z,2.6
2018-12-15T07:24:55.356Z,2.6
2018-12-15T07:25:45.723Z,2.6
2018-12-15T07:26:35.495Z,2.7
2018-12-15T07:27:25.823Z,2.7
2018-12-15T07:28:15.588Z,2.7
2018-12-15T07:29:05.903Z,2.7
2018-12-15T07:29:55.162Z,2.8
2018-12-15T07:30:46.043Z,2.8
2018-12-15T07:31:35.821Z,2.8
2018-12-15T07:32:25.890Z,2.8
2018-12-15T07:33:16.231Z,2.8
2018-12-15T07:34:05.990Z,2.8
2018-12-15T07:35:02.888Z,2.8
2018-12-15T07:35:45.841Z,2.8
2018-12-15T07:36:36.460Z,2.8
2018-12-15T07:37:26.508Z,2.8
2018-12-15T07:38:16.572Z,2.8
2018-12-15T07:39:06.345Z,2.9
2018-12-15T07:39:56.426Z,2.9
2018-12-15T07:40:46.175Z,2.9
2018-12-15T07:41:36.237Z,2.9
2018-12-15T07:42:26.555Z,2.9
2018-12-15T07:43:16.617Z,2.9
2018-12-15T07:44:06.685Z,3
2018-12-15T07:44:57.086Z,3
2018-12-15T07:45:47.072Z,3.1
2018-12-15T07:46:37.380Z,3.1
2018-12-15T07:47:26.902Z,3.1
2018-12-15T07:48:16.982Z,3.1
2018-12-15T07:49:07.297Z,3.1
2018-12-15T07:50:47.422Z,3.3
2018-12-15T07:51:36.911Z,3.3
2018-12-15T07:52:26.970Z,3.3
2018-12-15T07:53:17.044Z,3.3
2018-12-15T07:54:07.644Z,3.3
2018-12-15T07:54:57.717Z,3.4
2018-12-15T07:55:47.727Z,3.4
2018-12-15T07:56:39.089Z,3.4
2018-12-15T07:57:27.596Z,3.5
2018-12-15T07:58:17.368Z,3.5
2018-12-15T07:59:07.750Z,3.5
2018-12-15T07:59:58.049Z,3.6
2018-12-15T08:00:47.549Z,3.6
2018-12-15T08:01:38.409Z,3.6
2018-12-15T08:02:27.949Z,3.6
2018-12-15T08:03:18.006Z,3.6
2018-12-15T08:04:08.576Z,3.6
2018-12-15T08:04:58.106Z,3.6
2018-12-15T08:05:48.651Z,3.6
2018-12-15T08:06:37.928Z,3.6
2018-12-15T08:07:29.521Z,3.6
2018-12-15T08:08:18.614Z,3.6
2018-12-15T08:09:08.916Z,3.6
2018-12-15T08:09:58.717Z,3.5
2018-12-15T08:10:49.028Z,3.6
2018-12-15T08:11:38.273Z,3.6
2018-12-15T08:12:28.348Z,3.6
2018-12-15T08:13:18.456Z,3.7
2018-12-15T08:14:08.783Z,3.7
2018-12-15T08:14:59.074Z,3.7
2018-12-15T08:15:48.858Z,3.8
2018-12-15T08:16:38.898Z,3.8
2018-12-15T08:17:28.680Z,3.8
2018-12-15T08:18:19.085Z,3.8
2018-12-15T08:19:09.370Z,3.8
2018-12-15T08:19:59.430Z,3.8
2018-12-15T08:20:48.910Z,3.8
2018-12-15T08:21:39.528Z,3.9
2018-12-15T08:22:29.568Z,3.9
2018-12-15T08:23:19.088Z,3.9
2018-12-15T08:24:09.405Z,3.9
2018-12-15T08:24:59.475Z,4
2018-12-15T08:25:49.797Z,4.1
2018-12-15T08:26:39.610Z,4.1
2018-12-15T08:27:30.170Z,4
2018-12-15T08:28:19.984Z,4.1
2018-12-15T08:29:09.490Z,4
2018-12-15T08:30:00.338Z,4
2018-12-15T08:30:49.609Z,4.1
2018-12-15T08:31:39.932Z,4.1
2018-12-15T08:32:29.709Z,4.1
2018-12-15T08:33:20.068Z,4
2018-12-15T08:34:10.389Z,4
2018-12-15T08:35:00.382Z,4.1
2018-12-15T08:35:50.212Z,4.1
2018-12-15T08:36:40.269Z,4.1
2018-12-15T08:37:30.332Z,4.1
2018-12-15T08:38:20.389Z,4.3
2018-12-15T08:39:10.730Z,4.3
2018-12-15T08:40:00.774Z,4.3
2018-12-15T08:40:50.301Z,4.4
2018-12-15T08:41:40.896Z,4.4
2018-12-15T08:42:30.364Z,4.4
2018-12-15T08:43:21.023Z,4.3
2018-12-15T08:44:10.815Z,4.4
2018-12-15T08:45:01.154Z,4.4
2018-12-15T08:45:52.242Z,4.5
2018-12-15T08:46:40.966Z,4.5
2018-12-15T08:47:31.298Z,4.4
2018-12-15T08:48:21.351Z,4.4
2018-12-15T08:49:11.405Z,4.3
2018-12-15T08:50:01.478Z,4.3
2018-12-15T08:50:50.965Z,4.2
2018-12-15T08:51:43.016Z,4.2
2018-12-15T08:52:31.363Z,4.4
2018-12-15T08:53:21.151Z,4.4
2018-12-15T08:54:11.493Z,4.4
2018-12-15T08:55:01.779Z,4.5
2018-12-15T08:55:51.582Z,4.5
2018-12-15T08:56:41.996Z,4.5
2018-12-15T08:57:31.983Z,4.5
2018-12-15T08:58:22.035Z,4.5
2018-12-15T08:59:11.820Z,4.5
2018-12-15T09:00:02.119Z,4.4
2018-12-15T09:00:52.218Z,4.4
2018-12-15T09:16:40.111Z,4.6
2018-12-15T09:17:30.234Z,4.6
2018-12-15T09:18:19.930Z,4.6
2018-12-15T09:19:14.298Z,4.7
2018-12-15T09:20:00.546Z,4.7
2018-12-15T09:20:50.085Z,4.7
2018-12-15T09:21:40.668Z,4.7
2018-12-15T09:22:30.468Z,4.8
2018-12-15T09:23:19.978Z,4.8
2018-12-15T09:24:09.838Z,4.8
2018-12-15T09:25:00.378Z,4.7
2018-12-15T09:25:50.155Z,4.7
2018-12-15T09:26:40.994Z,4.7
2018-12-15T09:27:30.255Z,4.8
2018-12-15T09:28:20.850Z,4.8
2018-12-15T09:29:10.365Z,4.7
2018-12-15T09:30:00.690Z,4.8
2018-12-15T09:30:50.767Z,4.8
2018-12-15T09:31:41.095Z,4.7
2018-12-15T09:32:30.602Z,4.7
2018-12-15T09:33:21.238Z,4.8
2018-12-15T09:34:11.502Z,4.8
2018-12-15T09:35:00.812Z,4.8
2018-12-15T09:35:50.894Z,4.8
2018-12-15T09:36:40.682Z,4.9
2018-12-15T09:37:30.466Z,4.9
2018-12-15T09:38:21.024Z,4.8
2018-12-15T09:39:11.312Z,4.9
2018-12-15T09:40:01.114Z,4.8
2018-12-15T09:40:51.449Z,4.9
2018-12-15T09:41:41.507Z,5
2018-12-15T09:42:31.287Z,5
2018-12-15T09:43:21.891Z,4.9
2018-12-15T09:44:11.970Z,4.9
2018-12-15T09:45:01.465Z,4.9
2018-12-15T09:45:51.789Z,5
2018-12-15T09:46:41.849Z,5
2018-12-15T09:47:32.186Z,5
2018-12-15T09:48:21.972Z,5
2018-12-15T09:49:18.894Z,5
2018-12-15T09:50:01.887Z,5.1
2018-12-15T09:50:52.431Z,5
2018-12-15T09:51:42.277Z,4.9
2018-12-15T09:52:32.543Z,5
2018-12-15T09:53:22.540Z,5.1
2018-12-15T09:54:12.958Z,4.9
2018-12-15T09:55:01.966Z,4.9
2018-12-15T09:55:51.995Z,4.9
2018-12-15T09:56:41.788Z,4.9
2018-12-15T09:57:32.120Z,4.9
2018-12-15T09:58:22.450Z,4.9
2018-12-15T09:59:12.300Z,4.9
2018-12-15T10:00:02.315Z,4.8
2018-12-15T10:00:53.300Z,4.8
2018-12-15T10:01:42.135Z,4.9
2018-12-15T10:02:32.744Z,4.9
2018-12-15T10:03:22.815Z,4.9
2018-12-15T10:04:12.855Z,5
2018-12-15T10:05:02.929Z,5
2018-12-15T10:05:52.495Z,5
2018-12-15T10:06:43.034Z,4.9
2018-12-15T10:07:32.812Z,4.9
2018-12-15T10:08:23.142Z,4.9
2018-12-15T10:09:13.195Z,4.9
2018-12-15T10:10:03.179Z,4.9
2018-12-15T10:10:53.317Z,5
2018-12-15T10:11:43.377Z,4.9
2018-12-15T10:12:33.431Z,4.9
2018-12-15T10:13:23.479Z,4.9
2018-12-15T10:14:13.757Z,4.9
2018-12-15T10:15:04.092Z,5
2018-12-15T10:15:53.732Z,5
2018-12-15T10:16:44.164Z,5
2018-12-15T10:17:33.509Z,5.1
2018-12-15T10:18:23.759Z,5
2018-12-15T10:19:13.901Z,4.9
2018-12-15T10:20:04.889Z,5
2018-12-15T10:20:53.726Z,4.9
2018-12-15T10:21:44.226Z,5
2018-12-15T10:22:33.642Z,5
2018-12-15T10:23:24.342Z,5
2018-12-15T10:24:14.439Z,5
2018-12-15T10:25:04.502Z,5
2018-12-15T10:25:54.829Z,5
2018-12-15T10:26:44.359Z,5
2018-12-15T10:27:34.953Z,5
2018-12-15T10:28:24.513Z,5.1
2018-12-15T10:29:14.308Z,5
2018-12-15T10:30:04.623Z,4.9
2018-12-15T10:30:55.171Z,4.9
2018-12-15T10:31:44.682Z,4.9
2018-12-15T10:32:34.991Z,4.9
2018-12-15T10:33:25.346Z,5
2018-12-15T10:34:14.715Z,5
2018-12-15T10:35:05.455Z,5
2018-12-15T10:35:55.253Z,5
2018-12-15T10:36:45.288Z,5
2018-12-15T10:37:35.595Z,4.9
2018-12-15T10:38:25.128Z,4.9
2018-12-15T10:39:15.475Z,4.9
2018-12-15T10:40:05.548Z,4.8
2018-12-15T10:40:55.578Z,4.8
2018-12-15T10:41:45.946Z,4.8
2018-12-15T10:42:35.765Z,4.8
2018-12-15T10:43:25.480Z,4.9
2018-12-15T10:44:15.802Z,4.9
2018-12-15T10:45:06.140Z,4.9
2018-12-15T10:45:56.217Z,4.9
2018-12-15T10:46:45.975Z,4.8
2018-12-15T10:47:36.362Z,4.9
2018-12-15T10:48:25.539Z,4.8
2018-12-15T10:49:16.207Z,4.8
2018-12-15T10:50:05.939Z,4.8
2018-12-15T10:50:55.987Z,4.8
2018-12-15T10:51:46.602Z,4.9
2018-12-15T10:52:36.664Z,4.9
2018-12-15T10:53:26.439Z,4.9
2018-12-15T10:54:16.773Z,4.9
2018-12-15T10:55:06.827Z,4.9
2018-12-15T10:55:56.599Z,4.9
2018-12-15T10:56:46.659Z,4.9
2018-12-15T10:57:36.722Z,4.9
2018-12-15T10:58:27.057Z,4.9
2018-12-15T10:59:16.846Z,4.9
2018-12-15T11:00:06.884Z,4.9
2018-12-15T11:00:57.299Z,4.9
2018-12-15T11:01:47.489Z,4.9
2018-12-15T11:02:37.066Z,4.9
2018-12-15T11:03:27.120Z,4.8
2018-12-15T11:04:17.451Z,4.8
2018-12-15T11:05:07.509Z,4.8
2018-12-15T11:05:57.549Z,4.8
2018-12-15T11:06:47.370Z,4.8
2018-12-15T11:07:37.694Z,4.8
2018-12-15T11:08:27.741Z,4.8
2018-12-15T11:09:17.789Z,4.8
2018-12-15T11:10:07.561Z,4.8
2018-12-15T11:10:57.631Z,4.8
2018-12-15T11:11:47.939Z,4.8
2018-12-15T11:12:37.756Z,4.8
2018-12-15T11:13:28.338Z,4.8
2018-12-15T14:15:26.970Z,4.8
2018-12-15T14:16:16.493Z,4.8
2018-12-15T14:17:06.822Z,4.8
2018-12-15T14:17:56.888Z,4.8
2018-12-15T14:18:47.297Z,4.8
2018-12-15T14:19:36.992Z,4.8
2018-12-15T14:20:27.052Z,4.8
2018-12-15T14:21:16.812Z,4.8
2018-12-15T14:22:06.869Z,4.7
2018-12-15T14:22:57.212Z,4.7
2018-12-15T14:23:47.325Z,4.8
2018-12-15T14:24:37.342Z,4.8
2018-12-15T14:25:27.387Z,4.8
2018-12-15T14:26:17.434Z,4.8
2018-12-15T14:27:07.484Z,4.8
2018-12-15T14:27:57.274Z,4.8
2018-12-15T14:28:47.321Z,4.8
2018-12-15T14:29:37.384Z,4.8
2018-12-15T14:30:27.729Z,4.8
2018-12-15T14:31:17.507Z,4.8
2018-12-15T14:32:07.884Z,4.7
2018-12-15T14:32:57.611Z,4.7
2018-12-15T14:33:47.941Z,4.7
2018-12-15T14:34:37.471Z,4.7
2018-12-15T14:35:28.074Z,4.6
2018-12-15T14:36:17.844Z,4.6
2018-12-15T14:37:08.173Z,4.6
2018-12-15T14:37:57.964Z,4.6
2018-12-15T14:38:48.538Z,4.6
2018-12-15T14:39:37.802Z,4.6
2018-12-15T14:40:27.851Z,4.5
2018-12-15T14:41:18.181Z,4.6
2018-12-15T14:42:08.516Z,4.5
2018-12-15T14:42:58.293Z,4.5
2018-12-15T14:43:48.887Z,4.5
2018-12-15T14:44:38.416Z,4.5
2018-12-15T14:45:28.808Z,4.4
2018-12-15T14:46:18.823Z,4.4
2018-12-15T14:47:08.580Z,4.4
2018-12-15T14:47:58.921Z,4.4
2018-12-15T14:48:48.703Z,4.4
2018-12-15T14:49:38.751Z,4.4
2018-12-15T14:50:29.090Z,4.4
2018-12-15T14:51:19.390Z,4.4
2018-12-15T14:52:08.643Z,4.4
2018-12-15T14:52:58.988Z,4.4
2018-12-15T14:53:49.033Z,4.4
2018-12-15T14:54:39.453Z,4.4
2018-12-15T14:55:29.428Z,4.4
2018-12-15T14:56:19.483Z,4.4
2018-12-15T14:57:09.550Z,4.4
2018-12-15T14:57:59.333Z,4.4
2018-12-15T14:58:49.648Z,4.4
2018-12-15T14:59:39.962Z,4.4
2018-12-15T15:00:29.770Z,4.4
2018-12-15T15:01:19.555Z,4.3
2018-12-15T15:02:09.882Z,4.3
2018-12-15T15:02:59.667Z,4.3
2018-12-15T15:03:49.717Z,4.4
2018-12-15T15:04:39.500Z,4.4
2018-12-15T15:05:30.119Z,4.4
2018-12-15T15:06:20.159Z,4.4
2018-12-15T15:07:10.227Z,4.4
2018-12-15T15:07:59.997Z,4.4
2018-12-15T15:08:49.786Z,4.4
2018-12-15T15:09:40.384Z,4.4
2018-12-15T15:10:30.186Z,4.4
2018-12-15T15:11:20.219Z,4.3
2018-12-15T15:12:10.291Z,4.3
2018-12-15T15:12:59.784Z,4.3
2018-12-15T15:13:50.684Z,4.3
2018-12-15T15:14:40.746Z,4.3
2018-12-15T15:15:30.798Z,4.3
2018-12-15T15:16:20.851Z,4.3
2018-12-15T15:17:10.906Z,4.3
2018-12-15T15:18:00.688Z,4.3
2018-12-15T15:18:50.751Z,4.3
2018-12-15T15:19:41.101Z,4.3
2018-12-15T15:20:32.814Z,4.3
2018-12-15T15:21:20.952Z,4.4
2018-12-15T15:22:11.521Z,4.4
2018-12-15T15:23:01.024Z,4.4
2018-12-15T15:23:51.108Z,4.4
2018-12-15T15:24:41.188Z,4.4
2018-12-15T15:25:31.761Z,4.4
2018-12-15T15:26:21.575Z,4.4
2018-12-15T15:27:11.359Z,4.4